Time;durP1;ratioP1;P1;durP2;ratioP2;P2;SDS_P1;SDS_P2;PMS_P1;PMS_P2;Temp;Humidity;BMP_temperature;BMP_pressure;BME280_temperature;BME280_humidity;BME280_pressure;Samples;Min_cycle;Max_cycle;Signal;HPM_P1;HPM_P2
2024/03/02 00:00:11;;;;;;;7.72;3.35;;;1.90;99.90;;;;;;5104560;28;20030;-46
2024/03/02 00:02:55;;;;;;;4.88;3.08;;;2.00;99.90;;;;;;5104516;28;20061;-45
2024/03/02 00:05:21;;;;;;;8.07;2.70;;;1.90;99.90;;;;;;5105198;28;20080;-45
2024/03/02 00:07:57;;;;;;;7.63;3.33;;;1.90;99.90;;;;;;5105288;28;20040;-45
2024/03/02 00:10:31;;;;;;;7.45;3.10;;;1.90;99.90;;;;;;5105010;28;20023;-45
2024/03/02 00:12:57;;;;;;;12.35;3.50;;;1.80;99.90;;;;;;5104957;28;20091;-45
2024/03/02 00:15:31;;;;;;;8.77;3.25;;;1.90;99.90;;;;;;5105257;28;20031;-45
2024/03/02 00:17:57;;;;;;;8.55;3.20;;;1.80;99.90;;;;;;5105265;28;20036;-45
2024/03/02 00:20:23;;;;;;;9.48;3.25;;;1.80;99.90;;;;;;5105504;28;20020;-46
2024/03/02 00:22:52;;;;;;;6.88;2.78;;;1.80;99.90;;;;;;5104721;28;20040;-45
2024/03/02 00:25:18;;;;;;;7.30;3.25;;;1.80;99.90;;;;;;5104128;28;20028;-45
2024/03/02 00:27:48;;;;;;;5.70;3.03;;;1.80;99.90;;;;;;5108530;28;20036;-45
2024/03/02 00:30:36;;;;;;;;;;;1.80;99.90;;;;;;5109239;28;20024;-45
2024/03/02 00:33:05;;;;;;;6.68;3.90;;;1.80;99.90;;;;;;5097331;28;19957;-45
2024/03/02 00:35:30;;;;;;;6.57;2.97;;;1.80;99.90;;;;;;5107731;28;20053;-45
2024/03/02 00:37:56;;;;;;;8.10;2.83;;;1.80;99.90;;;;;;5108576;28;20045;-45
2024/03/02 00:40:21;;;;;;;7.28;3.30;;;1.80;99.90;;;;;;5108602;28;20215;-45
2024/03/02 00:42:47;;;;;;;6.55;2.80;;;1.80;99.90;;;;;;5107562;28;20163;-45
2024/03/02 00:45:13;;;;;;;6.20;2.83;;;1.80;99.90;;;;;;5090370;28;20055;-45
2024/03/02 00:47:39;;;;;;;6.72;3.00;;;1.70;99.90;;;;;;5108265;28;20049;-45
2024/03/02 00:50:06;;;;;;;7.55;2.92;;;1.80;99.90;;;;;;5108323;28;20038;-45
2024/03/02 00:52:32;;;;;;;7.80;2.80;;;1.80;99.90;;;;;;5108273;28;20016;-45
2024/03/02 00:54:58;;;;;;;7.93;3.10;;;1.80;99.90;;;;;;5090561;28;20056;-45
2024/03/02 00:57:25;;;;;;;6.65;2.67;;;1.80;99.90;;;;;;5108447;28;20031;-45
2024/03/02 00:59:51;;;;;;;8.48;2.50;;;1.80;99.90;;;;;;5090446;28;20081;-45
2024/03/02 01:02:20;;;;;;;6.53;2.75;;;1.90;99.90;;;;;;5108142;28;20285;-45
2024/03/02 01:04:45;;;;;;;4.90;2.00;;;1.90;99.90;;;;;;5108098;28;20028;-45
2024/03/02 01:07:11;;;;;;;7.43;2.55;;;2.10;99.90;;;;;;5107976;28;20155;-45
2024/03/02 01:09:37;;;;;;;5.40;2.28;;;2.10;99.90;;;;;;5107984;28;20036;-46
2024/03/02 01:12:03;;;;;;;5.30;2.05;;;2.20;99.90;;;;;;5108048;28;20077;-45
2024/03/02 01:14:28;;;;;;;6.88;2.67;;;2.20;99.90;;;;;;5107947;28;20166;-45
2024/03/02 01:16:54;;;;;;;5.13;1.90;;;2.20;99.90;;;;;;5107800;28;20057;-45
2024/03/02 01:19:20;;;;;;;7.00;2.55;;;2.20;99.90;;;;;;5107620;28;20024;-46
2024/03/02 01:21:45;;;;;;;6.28;2.35;;;2.30;99.90;;;;;;5107752;28;20020;-45
2024/03/02 01:24:11;;;;;;;4.90;2.25;;;2.20;99.90;;;;;;5107680;28;20062;-45
2024/03/02 01:26:37;;;;;;;4.20;2.13;;;2.20;99.90;;;;;;5106627;28;20065;-46
2024/03/02 01:29:02;;;;;;;5.35;2.05;;;2.20;99.90;;;;;;5107593;28;20032;-45
2024/03/02 01:31:28;;;;;;;5.22;2.30;;;2.30;99.90;;;;;;5107531;28;20063;-45
2024/03/02 01:33:53;;;;;;;6.55;2.15;;;2.30;99.90;;;;;;5107404;28;20083;-45
2024/03/02 01:36:19;;;;;;;7.90;2.05;;;2.30;99.90;;;;;;5107338;28;20019;-45
2024/03/02 01:38:45;;;;;;;6.63;2.22;;;2.30;99.90;;;;;;5107462;28;20055;-45
2024/03/02 01:41:11;;;;;;;3.75;1.58;;;2.40;99.90;;;;;;5107531;28;20274;-45
2024/03/02 01:43:37;;;;;;;7.10;1.85;;;2.40;99.90;;;;;;5107183;28;20050;-45
2024/03/02 01:46:02;;;;;;;5.07;1.58;;;2.40;99.90;;;;;;5106236;28;20193;-45
2024/03/02 01:48:28;;;;;;;6.43;1.90;;;2.40;99.90;;;;;;5106269;28;20032;-45
2024/03/02 01:50:54;;;;;;;5.32;1.73;;;2.40;99.90;;;;;;5106926;28;20043;-45
2024/03/02 01:53:19;;;;;;;6.53;1.92;;;2.40;99.90;;;;;;5106098;28;20060;-45
2024/03/02 01:55:45;;;;;;;4.60;1.70;;;2.40;99.90;;;;;;5107277;28;20024;-45
2024/03/02 01:58:11;;;;;;;5.05;1.98;;;2.50;99.90;;;;;;5107148;28;20078;-46
2024/03/02 02:00:36;;;;;;;5.85;1.73;;;2.40;99.90;;;;;;5106036;28;20028;-46
2024/03/02 02:03:02;;;;;;;2.83;1.40;;;2.50;99.90;;;;;;5106944;28;20282;-46
2024/03/02 02:05:28;;;;;;;5.70;1.70;;;2.50;99.90;;;;;;5105856;28;20039;-45
2024/03/02 02:07:53;;;;;;;5.85;2.42;;;2.50;99.90;;;;;;5106827;28;20039;-45
2024/03/02 02:10:19;;;;;;;5.40;1.50;;;2.50;99.90;;;;;;5106860;28;20085;-45
2024/03/02 02:12:45;;;;;;;4.35;1.40;;;2.50;99.90;;;;;;5106767;28;20051;-45
2024/03/02 02:15:27;;;;;;;6.50;2.15;;;2.60;99.90;;;;;;5106694;28;20072;-45
2024/03/02 02:17:53;;;;;;;7.65;1.83;;;2.60;99.90;;;;;;5106293;28;20024;-45
2024/03/02 02:20:19;;;;;;;4.03;1.60;;;2.50;99.90;;;;;;5106709;28;20032;-46
2024/03/02 02:23:00;;;;;;;3.85;1.77;;;2.50;99.90;;;;;;5106518;28;20298;-46
2024/03/02 02:25:27;;;;;;;5.78;1.83;;;2.40;99.90;;;;;;5106358;28;20077;-47
2024/03/02 02:27:52;;;;;;;5.78;1.70;;;2.40;99.90;;;;;;5106472;28;20052;-45
2024/03/02 02:30:26;;;;;;;3.50;1.85;;;2.50;99.90;;;;;;5106495;28;20031;-45
2024/03/02 02:32:51;;;;;;;5.07;1.70;;;2.50;99.90;;;;;;5106141;28;20263;-45
2024/03/02 02:35:17;;;;;;;3.63;1.80;;;2.50;99.90;;;;;;5106169;28;20109;-45
2024/03/02 02:37:43;;;;;;;6.75;2.00;;;2.50;99.90;;;;;;5106166;28;20087;-46
2024/03/02 02:40:09;;;;;;;3.47;1.90;;;2.50;99.90;;;;;;5088404;28;20047;-45
2024/03/02 02:42:35;;;;;;;4.97;1.58;;;2.50;99.90;;;;;;5106232;28;20182;-46
2024/03/02 02:45:01;;;;;;;4.68;2.03;;;2.50;99.90;;;;;;5106312;28;20051;-45
2024/03/02 02:47:28;;;;;;;2.40;1.30;;;2.50;99.90;;;;;;5105974;28;20330;-47
2024/03/02 02:49:54;;;;;;;4.45;1.80;;;2.50;99.90;;;;;;5104972;28;20048;-45
2024/03/02 02:52:21;;;;;;;5.30;1.95;;;2.50;99.90;;;;;;5106108;28;20034;-45
2024/03/02 02:54:46;;;;;;;4.80;1.98;;;2.60;99.90;;;;;;5106131;28;20169;-46
2024/03/02 02:57:12;;;;;;;4.75;1.85;;;2.50;99.90;;;;;;5105972;28;20024;-45
2024/03/02 02:59:38;;;;;;;4.78;1.63;;;2.50;99.90;;;;;;5105824;28;20024;-45
2024/03/02 03:02:03;;;;;;;4.80;2.35;;;2.50;99.90;;;;;;5105919;28;20046;-46
2024/03/02 03:04:29;;;;;;;3.80;1.75;;;2.50;99.90;;;;;;5105841;28;20027;-45
2024/03/02 03:06:55;;;;;;;3.60;1.75;;;2.50;99.90;;;;;;5105815;28;20024;-45
2024/03/02 03:09:20;;;;;;;4.70;1.83;;;2.50;99.90;;;;;;5105821;28;20060;-45
2024/03/02 03:11:46;;;;;;;6.28;1.90;;;2.50;99.90;;;;;;5105822;28;20069;-45
2024/03/02 03:14:12;;;;;;;5.20;1.80;;;2.50;99.90;;;;;;5105921;28;20051;-46
2024/03/02 03:16:38;;;;;;;5.50;2.35;;;2.50;99.90;;;;;;5105757;28;20032;-45
2024/03/02 03:19:03;;;;;;;5.85;2.20;;;2.50;99.90;;;;;;5105502;28;20032;-45
2024/03/02 03:21:29;;;;;;;4.03;1.70;;;2.50;99.90;;;;;;5105238;28;20289;-45
2024/03/02 03:23:55;;;;;;;5.70;1.92;;;2.60;99.90;;;;;;5105530;28;20066;-46
2024/03/02 03:26:21;;;;;;;5.28;2.15;;;2.50;99.90;;;;;;5105704;28;20030;-45
2024/03/02 03:28:46;;;;;;;4.25;1.80;;;2.60;99.90;;;;;;5105704;28;20261;-45
2024/03/02 03:31:12;;;;;;;3.22;1.70;;;2.70;99.90;;;;;;5105764;28;20055;-45
2024/03/02 03:33:37;;;;;;;6.68;2.47;;;2.70;99.90;;;;;;5105353;28;20059;-45
2024/03/02 03:36:03;;;;;;;4.20;2.15;;;2.70;99.90;;;;;;5105489;28;20101;-47
2024/03/02 03:38:30;;;;;;;5.57;2.10;;;2.80;99.90;;;;;;5105050;28;20081;-45
2024/03/02 03:40:55;;;;;;;6.28;2.40;;;2.70;99.90;;;;;;5105444;28;20163;-45
2024/03/02 03:43:21;;;;;;;4.32;2.00;;;2.80;99.90;;;;;;5105621;28;20032;-46
2024/03/02 03:45:47;;;;;;;3.55;1.75;;;2.80;99.90;;;;;;5105359;28;20051;-47
2024/03/02 03:48:12;;;;;;;4.70;2.00;;;2.80;99.90;;;;;;5105464;28;20048;-45
2024/03/02 03:50:38;;;;;;;4.78;2.28;;;2.80;99.90;;;;;;5105403;28;20031;-45
2024/03/02 03:53:04;;;;;;;5.60;2.60;;;2.80;99.90;;;;;;5105249;28;20163;-45
2024/03/02 03:55:29;;;;;;;9.73;2.60;;;2.90;99.90;;;;;;5104452;28;20089;-46
2024/03/02 03:57:55;;;;;;;6.18;2.45;;;3.00;99.90;;;;;;5105327;28;20049;-45
2024/03/02 04:00:20;;;;;;;6.35;2.40;;;3.10;99.90;;;;;;5106986;28;20024;-45
2024/03/02 04:02:46;;;;;;;7.90;2.58;;;3.10;99.90;;;;;;5109408;28;20028;-46
2024/03/02 04:05:12;;;;;;;7.43;3.55;;;3.20;99.90;;;;;;5109749;28;20024;-45
2024/03/02 04:07:40;;;;;;;8.25;3.97;;;3.30;99.90;;;;;;5109087;28;20061;-46
2024/03/02 04:10:09;;;;;;;5.63;3.28;;;3.50;99.90;;;;;;5108834;28;20087;-45
2024/03/02 04:12:39;;;;;;;9.00;4.00;;;3.60;99.90;;;;;;5109099;28;20034;-43
2024/03/02 04:15:06;;;;;;;11.38;4.63;;;3.50;99.90;;;;;;5109037;28;20339;-46
2024/03/02 04:17:33;;;;;;;10.05;4.63;;;3.60;99.90;;;;;;5109023;28;20109;-43
2024/03/02 04:19:59;;;;;;;8.75;4.30;;;3.70;99.90;;;;;;5109200;28;20094;-43
2024/03/02 04:22:25;;;;;;;6.00;4.05;;;3.80;99.90;;;;;;5108769;28;20028;-43
2024/03/02 04:24:51;;;;;;;8.18;4.00;;;3.80;99.90;;;;;;5108545;28;20024;-43
2024/03/02 04:27:17;;;;;;;6.78;4.05;;;3.90;99.90;;;;;;5108801;28;20020;-43
2024/03/02 04:29:43;;;;;;;9.05;4.18;;;3.90;99.90;;;;;;5108795;28;20085;-43
2024/03/02 04:32:08;;;;;;;10.02;4.90;;;4.00;99.90;;;;;;5108653;28;20297;-44
2024/03/02 04:34:34;;;;;;;7.70;4.28;;;3.90;99.90;;;;;;5108694;28;20016;-44
2024/03/02 04:36:59;;;;;;;10.05;4.80;;;4.00;99.90;;;;;;5108571;28;20199;-43
2024/03/02 04:39:25;;;;;;;9.63;4.80;;;4.00;99.90;;;;;;5108725;28;20089;-43
2024/03/02 04:41:51;;;;;;;10.57;5.07;;;4.00;99.90;;;;;;5108102;28;20089;-44
2024/03/02 04:44:16;;;;;;;10.00;4.88;;;4.10;99.90;;;;;;5108561;28;20347;-44
2024/03/02 04:46:42;;;;;;;10.07;4.93;;;4.10;99.90;;;;;;5108620;28;20042;-43
2024/03/02 04:49:08;;;;;;;10.77;5.53;;;4.10;99.90;;;;;;5108387;28;20038;-44
2024/03/02 04:51:34;;;;;;;9.70;5.45;;;4.10;99.90;;;;;;5108210;28;20281;-44
2024/03/02 04:53:59;;;;;;;9.13;5.18;;;4.20;99.90;;;;;;5108337;28;20292;-44
2024/03/02 04:58:56;;;;;;;7.90;5.05;;;4.30;99.90;;;;;;5107999;28;20020;-44
2024/03/02 05:01:22;;;;;;;11.70;5.97;;;4.30;99.90;;;;;;5108338;28;20066;-44
2024/03/02 05:03:47;;;;;;;9.57;5.50;;;4.30;99.90;;;;;;5108076;28;20024;-44
2024/03/02 05:06:13;;;;;;;10.35;5.38;;;4.30;99.90;;;;;;5108118;28;20036;-44
2024/03/02 05:08:39;;;;;;;8.95;5.13;;;4.30;99.90;;;;;;5108068;28;20027;-43
2024/03/02 05:13:48;;;;;;;9.35;5.68;;;4.40;99.90;;;;;;5108029;28;20046;-45
2024/03/02 05:16:14;;;;;;;10.30;5.28;;;4.40;99.90;;;;;;5108012;28;20056;-44
2024/03/02 05:18:40;;;;;;;8.60;5.78;;;4.40;99.90;;;;;;5107912;28;20076;-44
2024/03/02 05:21:05;;;;;;;9.68;5.38;;;4.40;99.90;;;;;;5107542;28;20083;-44
2024/03/02 05:23:31;;;;;;;8.27;4.90;;;4.40;99.90;;;;;;5107479;28;20174;-44
2024/03/02 05:25:56;;;;;;;9.50;5.00;;;4.40;99.90;;;;;;5107635;28;20058;-44
2024/03/02 05:28:22;;;;;;;11.13;5.63;;;4.40;99.90;;;;;;5107775;28;20206;-44
2024/03/02 05:30:48;;;;;;;10.65;5.88;;;4.40;99.90;;;;;;5107683;28;20286;-45
2024/03/02 05:33:13;;;;;;;10.15;7.07;;;4.40;99.90;;;;;;5107605;28;20189;-44
2024/03/02 05:35:39;;;;;;;11.10;5.82;;;4.40;99.90;;;;;;5107477;28;20182;-45
2024/03/02 05:38:05;;;;;;;11.65;6.88;;;4.40;99.90;;;;;;5107509;28;20032;-45
2024/03/02 05:40:30;;;;;;;10.15;6.28;;;4.40;99.90;;;;;;5107377;28;20035;-45
2024/03/02 05:42:56;;;;;;;11.85;6.22;;;4.40;99.90;;;;;;5107256;28;20099;-45
2024/03/02 05:45:22;;;;;;;11.80;7.20;;;4.40;99.90;;;;;;5107063;28;20028;-44
2024/03/02 05:47:47;;;;;;;13.77;6.45;;;4.40;99.90;;;;;;5107199;28;20024;-46
2024/03/02 05:50:13;;;;;;;10.80;6.40;;;4.50;99.90;;;;;;5107271;28;20055;-44
2024/03/02 05:52:39;;;;;;;10.15;6.25;;;4.40;99.90;;;;;;5107088;28;20028;-46
2024/03/02 05:55:04;;;;;;;11.32;5.65;;;4.40;99.90;;;;;;5107146;28;20028;-44
2024/03/02 05:57:49;;;;;;;11.30;5.90;;;4.40;99.90;;;;;;5106863;28;20035;-44
2024/03/02 06:00:16;;;;;;;9.30;5.63;;;4.40;99.90;;;;;;5107145;28;20016;-44
2024/03/02 06:02:42;;;;;;;11.77;5.43;;;4.40;99.90;;;;;;5106519;28;20043;-44
2024/03/02 06:05:08;;;;;;;8.57;5.60;;;4.40;99.90;;;;;;5107219;28;20270;-44
2024/03/02 06:07:34;;;;;;;11.13;5.05;;;4.40;99.90;;;;;;5106765;28;20167;-44
2024/03/02 06:09:59;;;;;;;9.00;4.93;;;4.40;99.90;;;;;;5106881;28;20032;-46
2024/03/02 06:12:25;;;;;;;11.75;5.38;;;4.40;99.90;;;;;;5106835;28;20289;-44
2024/03/02 06:14:51;;;;;;;9.77;5.28;;;4.40;99.90;;;;;;5106412;28;20324;-45
2024/03/02 06:17:16;;;;;;;9.70;5.47;;;4.40;99.90;;;;;;5106283;28;20028;-44
2024/03/02 06:19:42;;;;;;;9.90;5.32;;;4.40;99.90;;;;;;5106801;28;20028;-44
2024/03/02 06:22:10;;;;;;;8.75;5.32;;;4.40;99.90;;;;;;5106518;28;20027;-45
2024/03/02 06:24:37;;;;;;;9.48;4.88;;;4.40;99.90;;;;;;5105484;28;20055;-46
2024/03/02 06:27:03;;;;;;;13.02;5.15;;;4.40;99.90;;;;;;5106663;28;20049;-44
2024/03/02 06:29:28;;;;;;;10.82;5.45;;;4.40;99.90;;;;;;5106311;28;20024;-44
2024/03/02 06:31:54;;;;;;;10.77;5.72;;;4.40;99.90;;;;;;5106548;28;20042;-45
2024/03/02 06:34:20;;;;;;;11.60;5.28;;;4.40;99.90;;;;;;5105986;28;20205;-45
2024/03/02 06:36:45;;;;;;;10.45;5.82;;;4.40;99.90;;;;;;5106450;28;20263;-45
2024/03/02 06:39:12;;;;;;;10.65;6.18;;;4.40;99.90;;;;;;5106248;28;20289;-46
2024/03/02 06:41:38;;;;;;;12.05;5.40;;;4.40;99.90;;;;;;5106388;28;20027;-44
2024/03/02 06:44:04;;;;;;;10.15;5.55;;;4.40;99.90;;;;;;5106238;28;20062;-46
2024/03/02 06:46:29;;;;;;;9.52;5.63;;;4.40;99.90;;;;;;5105934;28;20103;-46
2024/03/02 06:48:55;;;;;;;9.77;5.68;;;4.40;99.90;;;;;;5105670;28;20091;-46
2024/03/02 06:51:20;;;;;;;12.93;6.32;;;4.40;99.90;;;;;;5105684;28;20059;-45
2024/03/02 06:53:46;;;;;;;11.30;5.35;;;4.40;99.90;;;;;;5105827;28;20040;-45
2024/03/02 06:56:12;;;;;;;7.68;4.88;;;4.40;99.90;;;;;;5106028;28;20024;-45
2024/03/02 06:58:37;;;;;;;8.88;6.97;;;4.40;99.90;;;;;;5106025;28;20024;-44
2024/03/02 07:01:03;;;;;;;7.70;4.88;;;4.40;99.90;;;;;;5106247;28;20063;-45
2024/03/02 07:03:29;;;;;;;6.60;4.15;;;4.40;99.90;;;;;;5105911;28;20059;-45
2024/03/02 07:05:54;;;;;;;8.63;4.60;;;4.50;99.90;;;;;;5105442;28;20220;-45
2024/03/02 07:08:20;;;;;;;6.60;4.35;;;4.50;99.90;;;;;;5105980;28;20032;-44
2024/03/02 07:10:46;;;;;;;9.85;5.40;;;4.50;99.90;;;;;;5105907;28;20278;-45
2024/03/02 07:13:12;;;;;;;8.40;4.80;;;4.50;99.90;;;;;;5105633;28;20023;-44
2024/03/02 07:18:22;;;;;;;9.75;5.57;;;4.50;99.90;;;;;;5105858;28;20034;-45
2024/03/02 07:20:49;;;;;;;9.88;5.07;;;4.50;99.90;;;;;;5105251;28;20174;-45
2024/03/02 07:23:15;;;;;;;8.98;4.32;;;4.50;99.90;;;;;;5105223;28;20258;-44
2024/03/02 07:25:40;;;;;;;7.18;4.35;;;4.60;99.90;;;;;;5105346;28;20039;-45
2024/03/02 07:28:07;;;;;;;7.47;3.80;;;4.60;99.90;;;;;;5105735;28;20355;-44
2024/03/02 07:30:33;;;;;;;4.30;2.75;;;4.60;99.90;;;;;;5105567;28;20020;-44
2024/03/02 07:32:59;;;;;;;5.47;2.30;;;4.60;99.90;;;;;;5105552;28;20046;-46
2024/03/02 07:35:27;;;;;;;4.10;3.00;;;4.60;99.90;;;;;;5106083;28;20095;-45
2024/03/02 07:37:53;;;;;;;3.00;2.13;;;4.60;99.90;;;;;;5109736;28;20066;-45
2024/03/02 07:40:19;;;;;;;4.45;2.40;;;4.60;99.90;;;;;;5108519;28;20032;-45
2024/03/02 07:42:45;;;;;;;3.83;2.15;;;4.60;99.90;;;;;;5109515;28;20277;-45
2024/03/02 07:45:11;;;;;;;5.60;2.42;;;4.60;99.90;;;;;;5109317;28;20024;-47
2024/03/02 07:47:36;;;;;;;4.63;2.42;;;4.60;99.90;;;;;;5108369;28;20032;-45
2024/03/02 07:50:02;;;;;;;3.13;1.77;;;4.70;99.90;;;;;;5109604;28;20048;-44
2024/03/02 07:52:28;;;;;;;3.90;2.40;;;4.70;99.90;;;;;;5108193;28;20024;-45
2024/03/02 07:54:55;;;;;;;3.22;2.28;;;4.80;99.90;;;;;;5109308;28;20031;-45
2024/03/02 07:57:21;;;;;;;5.38;2.30;;;4.80;99.90;;;;;;5109165;28;20028;-44
2024/03/02 07:59:47;;;;;;;5.43;2.50;;;4.80;99.90;;;;;;5109134;28;20340;-44
2024/03/02 08:02:12;;;;;;;6.50;3.10;;;4.80;99.90;;;;;;5109104;28;20031;-44
2024/03/02 08:04:38;;;;;;;3.58;2.28;;;4.80;99.90;;;;;;5109018;28;20040;-45
2024/03/02 08:07:04;;;;;;;4.28;2.63;;;4.80;99.90;;;;;;5108591;28;20083;-44
2024/03/02 08:09:30;;;;;;;6.25;2.97;;;5.70;99.90;;;;;;5107970;28;20027;-45
2024/03/02 08:11:57;;;;;;;9.15;4.50;;;6.00;99.90;;;;;;5108970;28;20067;-44
2024/03/02 08:14:23;;;;;;;4.65;2.70;;;5.60;99.90;;;;;;5107940;28;20185;-44
2024/03/02 08:16:48;;;;;;;4.53;2.63;;;5.40;99.90;;;;;;5108577;28;20028;-44
2024/03/02 08:19:14;;;;;;;3.88;2.50;;;5.30;99.90;;;;;;5109060;28;20036;-45
2024/03/02 08:21:40;;;;;;;5.10;2.80;;;5.30;99.90;;;;;;5109084;28;20055;-45
2024/03/02 08:24:06;;;;;;;4.88;3.20;;;5.20;99.90;;;;;;5108317;28;20267;-45
2024/03/02 08:26:31;;;;;;;6.40;3.67;;;5.20;99.90;;;;;;5107615;28;20036;-45
2024/03/02 08:29:01;;;;;;;9.43;4.43;;;5.20;99.90;;;;;;5108602;28;20288;-44
2024/03/02 08:31:27;;;;;;;13.88;6.50;;;5.40;99.90;;;;;;5108785;28;20344;-45
2024/03/02 08:33:53;;;;;;;10.98;6.57;;;5.50;99.90;;;;;;5108424;28;20160;-44
2024/03/02 08:36:19;;;;;;;10.20;5.68;;;5.60;99.90;;;;;;5108642;28;20036;-44
2024/03/02 08:38:45;;;;;;;9.13;4.85;;;5.80;99.90;;;;;;5108543;28;20085;-45
2024/03/02 08:41:13;;;;;;;6.88;5.18;;;5.90;99.90;;;;;;5108014;28;20028;-45
2024/03/02 08:43:39;;;;;;;10.23;6.20;;;5.90;99.90;;;;;;5107542;28;20232;-46
2024/03/02 08:46:05;;;;;;;6.32;5.10;;;5.90;99.90;;;;;;5089562;28;20175;-45
2024/03/02 08:48:31;;;;;;;6.50;4.13;;;5.90;99.90;;;;;;5107602;28;20171;-44
2024/03/02 08:50:56;;;;;;;7.03;4.53;;;5.90;99.90;;;;;;5107447;28;20118;-44
2024/03/02 08:53:22;;;;;;;7.05;4.60;;;6.00;99.90;;;;;;5107665;28;20028;-45
2024/03/02 08:55:48;;;;;;;8.70;4.35;;;6.10;99.90;;;;;;5107837;28;20196;-47
2024/03/02 08:58:13;;;;;;;7.40;4.57;;;6.30;99.90;;;;;;5108022;28;20065;-44
2024/03/02 09:00:39;;;;;;;7.28;4.22;;;6.50;99.90;;;;;;5107464;28;20202;-46
2024/03/02 09:03:05;;;;;;;6.05;3.78;;;6.50;99.90;;;;;;5107792;28;20028;-45
2024/03/02 09:05:30;;;;;;;6.57;4.63;;;6.50;99.90;;;;;;5107406;28;20036;-45
2024/03/02 09:07:56;;;;;;;7.63;4.53;;;6.50;99.90;;;;;;5107608;28;20036;-44
2024/03/02 09:10:22;;;;;;;9.95;5.05;;;6.50;99.90;;;;;;5107844;28;20024;-48
2024/03/02 09:12:47;;;;;;;6.78;4.40;;;6.50;99.90;;;;;;5107112;28;20054;-45
2024/03/02 09:15:13;;;;;;;9.63;5.35;;;6.50;99.90;;;;;;5107588;28;20070;-46
2024/03/02 09:17:38;;;;;;;9.38;6.07;;;6.40;99.90;;;;;;5107322;28;20114;-46
2024/03/02 09:20:05;;;;;;;8.23;5.30;;;6.40;99.90;;;;;;5107306;28;20036;-44
2024/03/02 09:22:32;;;;;;;7.05;4.82;;;6.40;99.90;;;;;;5107683;28;20120;-46
2024/03/02 09:24:58;;;;;;;5.78;4.68;;;6.40;99.90;;;;;;5107028;28;20023;-44
2024/03/02 09:27:24;;;;;;;5.88;4.05;;;6.40;99.90;;;;;;5107533;28;20181;-46
2024/03/02 09:29:49;;;;;;;6.97;4.22;;;6.40;99.90;;;;;;5107480;28;20083;-46
2024/03/02 09:32:15;;;;;;;8.20;5.43;;;6.40;99.90;;;;;;5106846;28;20070;-47
2024/03/02 09:34:41;;;;;;;8.95;6.47;;;6.50;99.90;;;;;;5107655;28;20235;-44
2024/03/02 09:37:07;;;;;;;6.75;5.25;;;6.50;99.90;;;;;;5106961;28;20035;-45
2024/03/02 09:39:33;;;;;;;7.82;5.70;;;6.60;99.90;;;;;;5107046;28;20028;-46
2024/03/02 09:42:02;;;;;;;8.57;5.25;;;6.70;99.90;;;;;;5107096;28;20109;-45
2024/03/02 09:44:27;;;;;;;7.15;5.78;;;6.80;99.90;;;;;;5105921;28;20036;-47
2024/03/02 09:46:53;;;;;;;6.63;5.63;;;6.80;99.90;;;;;;5106404;28;20264;-48
2024/03/02 09:49:19;;;;;;;5.93;5.00;;;6.80;99.90;;;;;;5106938;28;20085;-46
2024/03/02 09:51:48;;;;;;;61.28;29.95;;;6.70;99.90;;;;;;5106779;28;20024;-48
2024/03/02 09:54:15;;;;;;;7.93;5.00;;;6.70;99.90;;;;;;5106980;28;20075;-47
2024/03/02 09:56:40;;;;;;;11.88;10.63;;;6.70;99.90;;;;;;5106038;28;20297;-46
2024/03/02 09:59:06;;;;;;;5.95;4.82;;;6.70;99.90;;;;;;5106565;28;20087;-45
2024/03/02 10:01:32;;;;;;;8.75;5.40;;;6.70;99.90;;;;;;5105840;28;20035;-48
2024/03/02 10:03:59;;;;;;;8.60;5.85;;;6.70;99.90;;;;;;5106630;28;20047;-46
2024/03/02 10:06:26;;;;;;;7.03;5.40;;;6.70;99.90;;;;;;5106487;28;20042;-46
2024/03/02 10:08:52;;;;;;;8.88;5.85;;;6.60;99.90;;;;;;5106041;28;20031;-49
2024/03/02 10:11:31;;;;;;;10.10;5.78;;;6.60;99.90;;;;;;5106644;28;20040;-46
2024/03/02 10:14:10;;;;;;;8.37;4.87;;;6.50;99.90;;;;;;5106349;28;20046;-46
2024/03/02 10:16:36;;;;;;;6.30;4.60;;;6.50;99.90;;;;;;5105580;28;20047;-48
2024/03/02 10:19:19;;;;;;;7.55;4.97;;;6.50;99.90;;;;;;5106242;28;20052;-46
2024/03/02 10:21:51;;;;;;;8.27;5.10;;;6.50;99.90;;;;;;5106035;28;20047;-45
2024/03/02 10:24:21;;;;;;;7.57;5.63;;;6.50;99.90;;;;;;5105578;28;20044;-45
2024/03/02 10:26:46;;;;;;;6.97;5.72;;;6.50;99.90;;;;;;5104840;28;20048;-46
2024/03/02 10:29:12;;;;;;;7.57;5.45;;;6.50;99.90;;;;;;5106287;28;20142;-47
2024/03/02 10:31:38;;;;;;;6.95;6.25;;;6.50;99.90;;;;;;5105014;28;20020;-49
2024/03/02 10:34:04;;;;;;;10.23;5.60;;;6.50;99.90;;;;;;5105923;28;20103;-45
2024/03/02 10:36:30;;;;;;;10.82;5.88;;;6.60;99.90;;;;;;5087686;28;20028;-45
2024/03/02 10:38:58;;;;;;;11.38;6.60;;;6.50;99.90;;;;;;5105834;28;20178;-45
2024/03/02 10:41:24;;;;;;;10.40;6.15;;;6.60;99.90;;;;;;5105558;28;20028;-45
2024/03/02 10:43:59;;;;;;;16.00;7.70;;;6.90;99.90;;;;;;5104249;28;20020;-45
2024/03/02 10:46:28;;;;;;;12.30;8.30;;;7.20;99.90;;;;;;5088214;28;20024;-45
2024/03/02 10:48:53;;;;;;;13.17;7.30;;;7.60;99.90;;;;;;5104332;28;20103;-45
2024/03/02 10:51:19;;;;;;;9.93;6.00;;;8.20;99.90;;;;;;5105505;28;20028;-46
2024/03/02 10:53:44;;;;;;;6.53;4.50;;;8.70;99.90;;;;;;5105866;28;20181;-47
2024/03/02 10:56:10;;;;;;;10.27;5.05;;;8.80;99.90;;;;;;5105652;28;20040;-46
2024/03/02 10:58:36;;;;;;;8.02;4.13;;;8.80;99.90;;;;;;5088161;28;20028;-46
2024/03/02 11:01:02;;;;;;;7.43;4.60;;;8.80;99.90;;;;;;5105961;28;20027;-48
2024/03/02 11:03:30;;;;;;;7.45;3.53;;;8.70;99.90;;;;;;5105502;28;20047;-49
2024/03/02 11:05:55;;;;;;;6.43;4.07;;;8.70;99.90;;;;;;5087320;28;20059;-46
2024/03/02 11:08:23;;;;;;;7.18;3.85;;;8.70;99.90;;;;;;5104406;28;20036;-48
2024/03/02 11:11:12;;;;;;;5.18;3.38;;;8.80;99.90;;;;;;5104171;28;20031;-48
2024/03/02 11:13:39;;;;;;;10.32;4.88;;;8.70;99.90;;;;;;5103641;28;20046;-48
2024/03/02 11:16:15;;;;;;;4.55;3.17;;;8.40;99.90;;;;;;5104787;28;20027;-46
2024/03/02 11:18:41;;;;;;;7.05;4.25;;;8.60;99.90;;;;;;5104269;28;20028;-47
2024/03/02 11:21:07;;;;;;;7.22;3.20;;;8.40;99.90;;;;;;5104748;28;20054;-45
2024/03/02 11:23:33;;;;;;;6.68;3.78;;;8.30;99.90;;;;;;5103831;28;20162;-46
2024/03/02 11:26:18;;;;;;;7.72;4.18;;;8.10;99.90;;;;;;5104240;28;20057;-45
2024/03/02 11:28:45;;;;;;;7.43;4.40;;;8.00;99.90;;;;;;5105464;28;20097;-47
2024/03/02 11:31:10;;;;;;;9.90;4.68;;;8.40;99.90;;;;;;5105122;28;20297;-45
2024/03/02 11:33:36;;;;;;;15.20;9.70;;;8.20;99.90;;;;;;5105052;28;20118;-45
2024/03/02 11:36:02;;;;;;;8.88;4.75;;;8.10;99.90;;;;;;5104350;28;20044;-48
2024/03/02 11:38:29;;;;;;;9.05;5.10;;;8.10;99.90;;;;;;5104315;28;20016;-45
2024/03/02 11:40:54;;;;;;;7.68;3.08;;;7.90;99.90;;;;;;5105150;28;20047;-46
2024/03/02 11:43:21;;;;;;;3.55;2.65;;;7.70;99.90;;;;;;5105286;28;20039;-45
2024/03/02 11:45:46;;;;;;;4.85;2.83;;;7.50;99.90;;;;;;5103996;28;20194;-47
2024/03/02 11:48:14;;;;;;;27.17;15.30;;;7.30;99.90;;;;;;5105002;28;20069;-45
2024/03/02 11:50:47;;;;;;;4.05;2.78;;;7.30;99.90;;;;;;5104847;28;20043;-45
2024/03/02 11:53:13;;;;;;;5.30;3.20;;;7.20;99.90;;;;;;5087047;28;20064;-46
2024/03/02 11:55:40;;;;;;;6.70;3.20;;;7.00;99.90;;;;;;5105111;28;20020;-46
2024/03/02 11:58:06;;;;;;;6.50;2.70;;;7.10;99.90;;;;;;5105285;28;20309;-44
2024/03/02 12:00:32;;;;;;;5.22;3.50;;;7.10;99.90;;;;;;5104981;28;20219;-44
2024/03/02 12:03:02;;;;;;;5.15;3.00;;;7.10;99.90;;;;;;5104964;28;20040;-46
2024/03/02 12:05:28;;;;;;;5.88;3.22;;;7.30;99.90;;;;;;5104947;28;20111;-45
2024/03/02 12:08:06;;;;;;;6.07;3.40;;;7.40;99.90;;;;;;5104781;28;20032;-44
2024/03/02 12:10:32;;;;;;;4.90;3.25;;;7.60;99.90;;;;;;5105073;28;20090;-45
2024/03/02 12:12:58;;;;;;;7.57;3.38;;;7.80;99.90;;;;;;5104723;28;20277;-46
2024/03/02 12:15:28;;;;;;;7.03;3.80;;;7.80;99.90;;;;;;5104792;28;20031;-45
2024/03/02 12:17:57;;;;;;;5.95;3.70;;;8.10;99.90;;;;;;5104764;28;20319;-47
2024/03/02 12:20:23;;;;;;;7.97;3.50;;;8.60;99.90;;;;;;5105025;28;20032;-45
2024/03/02 12:22:53;;;;;;;6.20;3.13;;;9.60;99.90;;;;;;5107943;28;20194;-45
2024/03/02 12:25:23;;;;;;;10.48;5.18;;;10.40;99.90;;;;;;5090623;28;20226;-47
2024/03/02 12:27:53;;;;;;;4.82;3.22;;;11.20;99.90;;;;;;5108114;28;20086;-45
2024/03/02 12:30:19;;;;;;;10.20;6.25;;;11.10;99.90;;;;;;5108503;28;20174;-46
2024/03/02 12:32:45;;;;;;;7.15;4.70;;;10.20;99.90;;;;;;5109326;28;20047;-49
2024/03/02 12:35:17;;;;;;;7.50;4.65;;;9.60;99.90;;;;;;5108256;28;20024;-46
2024/03/02 12:37:46;;;;;;;8.70;5.30;;;9.40;99.90;;;;;;5108336;28;20028;-46
2024/03/02 12:40:12;;;;;;;8.57;5.13;;;9.30;99.90;;;;;;5108421;28;20038;-44
2024/03/02 12:42:39;;;;;;;7.93;5.53;;;9.10;99.90;;;;;;5108343;28;20032;-45
2024/03/02 12:45:08;;;;;;;7.47;4.95;;;8.90;99.90;;;;;;5107993;28;20027;-46
2024/03/02 12:47:34;;;;;;;9.75;5.60;;;8.80;99.90;;;;;;5108269;28;20065;-46
2024/03/02 12:50:00;;;;;;;9.13;6.05;;;8.70;99.90;;;;;;5108430;28;20317;-46
2024/03/02 12:52:26;;;;;;;10.45;5.18;;;8.80;99.90;;;;;;5108239;28;20027;-47
2024/03/02 12:54:52;;;;;;;8.55;4.78;;;8.80;99.90;;;;;;5106973;28;20036;-47
2024/03/02 12:57:21;;;;;;;7.90;4.57;;;8.90;99.90;;;;;;5107828;28;20027;-46
2024/03/02 12:59:46;;;;;;;7.60;4.45;;;8.90;99.90;;;;;;5108111;28;20050;-46